createdAt,value
2023-01-23T00:01:20.760Z,17.58
2023-01-23T00:03:47.474Z,16.83
2023-01-23T00:06:15.971Z,16.83
2023-01-23T00:08:44.723Z,16.77
2023-01-23T00:11:14.338Z,17.00
2023-01-23T00:13:41.223Z,17.13
2023-01-23T00:16:13.865Z,16.13
2023-01-23T00:18:40.997Z,16.52
2023-01-23T00:21:13.424Z,16.98
2023-01-23T00:23:43.997Z,16.98
2023-01-23T00:26:15.539Z,15.73
2023-01-23T00:28:43.719Z,16.33
2023-01-23T00:31:13.811Z,16.73
2023-01-23T00:33:41.481Z,17.38
2023-01-23T00:36:08.944Z,15.98
2023-01-23T00:38:36.007Z,16.50
2023-01-23T00:41:03.723Z,17.48
2023-01-23T00:43:31.138Z,15.60
2023-01-23T00:45:57.999Z,17.13
2023-01-23T00:48:25.032Z,16.60
2023-01-23T00:50:52.313Z,16.70
2023-01-23T00:53:19.363Z,15.93
2023-01-23T00:55:46.056Z,15.50
2023-01-23T00:58:12.957Z,16.15
2023-01-23T01:00:40.261Z,16.20
2023-01-23T01:03:07.454Z,16.05
2023-01-23T01:05:34.760Z,15.38
2023-01-23T01:08:01.528Z,15.95
2023-01-23T01:10:29.576Z,16.13
2023-01-23T01:12:57.686Z,16.35
2023-01-23T01:15:24.943Z,15.30
2023-01-23T01:17:54.157Z,15.93
2023-01-23T01:20:25.969Z,15.68
2023-01-23T01:22:54.365Z,15.93
2023-01-23T01:25:21.265Z,16.05
2023-01-23T01:27:48.782Z,15.77
2023-01-23T01:30:18.029Z,15.43
2023-01-23T01:32:45.129Z,15.65
2023-01-23T01:35:12.102Z,15.18
2023-01-23T01:37:40.915Z,15.48
2023-01-23T01:40:12.432Z,15.50
2023-01-23T01:42:49.434Z,15.75
2023-01-23T01:45:53.688Z,15.40
2023-01-23T01:48:24.553Z,15.05
2023-01-23T01:50:52.072Z,16.50
2023-01-23T01:53:20.703Z,16.55
2023-01-23T01:55:48.003Z,15.15
2023-01-23T01:58:14.952Z,16.25
2023-01-23T02:00:41.944Z,16.05
2023-01-23T02:03:08.953Z,15.80
2023-01-23T02:05:43.652Z,15.68
2023-01-23T02:08:29.453Z,14.93
2023-01-23T02:10:56.726Z,15.60
2023-01-23T02:13:35.973Z,15.00
2023-01-23T02:16:07.030Z,16.40
2023-01-23T02:18:38.552Z,16.48
2023-01-23T02:21:07.789Z,16.10
2023-01-23T02:23:52.942Z,17.15
2023-01-23T02:26:27.756Z,15.10
2023-01-23T02:28:55.941Z,16.55
2023-01-23T02:31:23.158Z,16.00
2023-01-23T02:33:53.150Z,15.90
2023-01-23T02:36:23.512Z,17.10
2023-01-23T02:39:06.118Z,16.70
2023-01-23T02:41:38.138Z,16.42
2023-01-23T02:44:12.844Z,16.63
2023-01-23T02:46:40.331Z,15.65
2023-01-23T02:49:07.289Z,15.77
2023-01-23T02:51:34.049Z,17.27
2023-01-23T02:54:01.016Z,16.52
2023-01-23T02:56:27.734Z,16.33
2023-01-23T02:59:13.033Z,17.23
2023-01-23T03:01:39.832Z,16.15
2023-01-23T03:04:06.886Z,17.15
2023-01-23T03:06:38.337Z,16.35
2023-01-23T03:09:08.652Z,16.40
2023-01-23T03:11:37.863Z,16.42
2023-01-23T03:14:06.341Z,17.20
2023-01-23T03:16:36.565Z,17.02
2023-01-23T03:19:08.219Z,17.27
2023-01-23T03:21:40.671Z,16.98
2023-01-23T03:24:09.563Z,16.73
2023-01-23T03:26:39.567Z,16.88
2023-01-23T03:29:24.789Z,17.80
2023-01-23T03:31:51.745Z,17.50
2023-01-23T03:34:19.054Z,17.60
2023-01-23T03:36:45.956Z,18.02
2023-01-23T03:39:31.039Z,17.02
2023-01-23T03:41:57.708Z,16.90
2023-01-23T03:44:24.390Z,16.75
2023-01-23T03:46:52.413Z,17.35
2023-01-23T03:49:19.717Z,16.67
2023-01-23T03:51:46.455Z,16.67
2023-01-23T03:54:14.631Z,17.52
2023-01-23T03:56:42.356Z,17.10
2023-01-23T03:59:09.694Z,17.67
2023-01-23T04:01:36.988Z,18.55
2023-01-23T04:04:03.909Z,17.65
2023-01-23T04:06:31.394Z,17.75
2023-01-23T04:08:58.281Z,17.70
2023-01-23T04:11:26.514Z,18.25
2023-01-23T04:13:54.383Z,18.73
2023-01-23T04:16:22.789Z,18.10
2023-01-23T04:18:50.740Z,19.45
2023-01-23T04:21:17.798Z,18.67
2023-01-23T04:23:44.679Z,18.45
2023-01-23T04:26:11.509Z,18.48
2023-01-23T04:28:38.317Z,18.35
2023-01-23T04:31:05.723Z,17.88
2023-01-23T04:33:32.438Z,18.25
2023-01-23T04:36:01.911Z,19.02
2023-01-23T04:38:30.346Z,17.90
2023-01-23T04:40:57.353Z,17.95
2023-01-23T04:43:24.096Z,17.25
2023-01-23T04:45:52.465Z,17.50
2023-01-23T04:48:19.826Z,17.45
2023-01-23T04:50:46.537Z,17.85
2023-01-23T04:53:14.029Z,18.67
2023-01-23T04:55:40.844Z,18.30
2023-01-23T04:58:07.987Z,17.65
2023-01-23T05:00:34.629Z,18.77
2023-01-23T05:03:02.611Z,18.85
2023-01-23T05:05:29.339Z,18.58
2023-01-23T05:07:56.118Z,19.30
2023-01-23T05:10:23.069Z,18.55
2023-01-23T05:12:49.936Z,18.88
2023-01-23T05:15:17.333Z,18.90
2023-01-23T05:17:44.127Z,18.23
2023-01-23T05:20:11.837Z,19.77
2023-01-23T05:22:39.464Z,18.67
2023-01-23T05:25:06.835Z,19.45
2023-01-23T05:27:34.595Z,19.02
2023-01-23T05:30:01.257Z,20.02
2023-01-23T05:32:27.917Z,19.08
2023-01-23T05:34:54.564Z,20.05
2023-01-23T05:37:25.333Z,20.60
2023-01-23T05:39:52.346Z,19.33
2023-01-23T05:42:19.126Z,20.02
2023-01-23T05:44:45.789Z,20.27
2023-01-23T05:47:12.621Z,20.95
2023-01-23T05:49:39.293Z,20.15
2023-01-23T05:52:06.208Z,19.73
2023-01-23T05:54:32.917Z,21.30
2023-01-23T05:56:59.769Z,20.85
2023-01-23T05:59:26.386Z,20.65
2023-01-23T06:01:53.042Z,20.92
2023-01-23T06:04:19.689Z,20.38
2023-01-23T06:06:46.497Z,21.33
2023-01-23T06:09:13.181Z,20.98
2023-01-23T06:11:39.998Z,21.90
2023-01-23T06:14:06.636Z,21.60
2023-01-23T06:16:33.277Z,20.90
2023-01-23T06:19:00.174Z,20.45
2023-01-23T06:21:26.929Z,21.42
2023-01-23T06:23:53.609Z,21.13
2023-01-23T06:26:20.435Z,21.20
2023-01-23T06:28:47.261Z,21.13
2023-01-23T06:31:14.068Z,21.35
2023-01-23T06:33:40.778Z,21.02
2023-01-23T06:36:08.223Z,22.23
2023-01-23T06:38:35.090Z,21.33
2023-01-23T06:41:02.052Z,22.38
2023-01-23T06:43:28.773Z,21.70
2023-01-23T06:45:55.456Z,20.77
2023-01-23T06:48:22.424Z,20.52
2023-01-23T06:50:49.372Z,21.00
2023-01-23T06:53:17.615Z,22.63
2023-01-23T06:55:44.383Z,21.52
2023-01-23T06:58:11.448Z,21.10
2023-01-23T07:00:38.176Z,21.30
2023-01-23T07:03:04.911Z,21.42
2023-01-23T07:05:32.554Z,21.90
2023-01-23T07:07:59.491Z,21.40
2023-01-23T07:10:26.403Z,22.75
2023-01-23T07:12:53.182Z,21.30
2023-01-23T07:15:19.854Z,21.35
2023-01-23T07:17:47.757Z,21.65
2023-01-23T07:20:15.432Z,21.85
2023-01-23T07:22:42.192Z,22.50
2023-01-23T07:25:09.077Z,21.70
2023-01-23T07:27:35.879Z,21.38
2023-01-23T07:30:02.740Z,22.27
2023-01-23T07:32:29.439Z,21.77
2023-01-23T07:34:56.177Z,21.35
2023-01-23T07:37:25.102Z,20.95
2023-01-23T07:39:54.054Z,21.88
2023-01-23T07:42:20.893Z,21.73
2023-01-23T07:44:47.537Z,22.27
2023-01-23T07:47:14.307Z,22.52
2023-01-23T07:49:40.986Z,21.45
2023-01-23T07:52:07.773Z,21.65
2023-01-23T07:54:34.509Z,21.48
2023-01-23T07:57:01.399Z,22.67
2023-01-23T07:59:28.091Z,22.88
2023-01-23T08:01:54.791Z,23.08
2023-01-23T08:04:21.586Z,22.88
2023-01-23T08:06:48.435Z,22.42
2023-01-23T08:09:15.128Z,22.98
2023-01-23T08:11:41.797Z,22.40
2023-01-23T08:14:08.436Z,23.88
2023-01-23T08:16:35.135Z,23.50
2023-01-23T08:19:01.852Z,24.33
2023-01-23T08:21:28.596Z,23.33
2023-01-23T08:23:55.299Z,23.70
2023-01-23T08:26:21.932Z,22.95
2023-01-23T08:28:48.804Z,23.50
2023-01-23T08:31:15.666Z,23.17
2023-01-23T08:33:43.027Z,23.23
2023-01-23T08:36:12.965Z,23.25
2023-01-23T08:38:40.071Z,22.77
2023-01-23T08:41:06.953Z,21.88
2023-01-23T08:43:33.668Z,22.35
2023-01-23T08:46:00.853Z,22.45
2023-01-23T08:48:28.536Z,23.27
2023-01-23T08:51:10.823Z,22.85
2023-01-23T08:53:37.538Z,22.25
2023-01-23T08:56:06.682Z,21.90
2023-01-23T08:58:33.930Z,21.58
2023-01-23T09:01:00.981Z,21.63
2023-01-23T09:03:28.620Z,22.15
2023-01-23T09:05:55.376Z,21.13
2023-01-23T09:08:22.302Z,21.25
2023-01-23T09:10:49.122Z,19.85
2023-01-23T09:13:15.900Z,21.42
2023-01-23T09:15:42.752Z,20.42
2023-01-23T09:18:12.658Z,21.45
2023-01-23T09:20:39.388Z,21.67
2023-01-23T09:23:06.071Z,20.80
2023-01-23T09:25:37.502Z,20.10
2023-01-23T09:28:04.512Z,21.17
2023-01-23T09:30:31.245Z,21.73
2023-01-23T09:32:57.941Z,20.48
2023-01-23T09:35:24.714Z,21.27
2023-01-23T09:38:01.452Z,20.90
2023-01-23T09:40:35.110Z,21.33
2023-01-23T09:43:31.637Z,19.40
2023-01-23T09:46:10.787Z,20.95
2023-01-23T09:48:48.315Z,20.67
2023-01-23T09:52:00.258Z,20.83
2023-01-23T09:54:32.622Z,20.98
2023-01-23T09:57:03.909Z,20.83
2023-01-23T09:59:54.031Z,21.02
2023-01-23T10:02:26.924Z,22.83
2023-01-23T10:04:54.691Z,20.98
2023-01-23T10:07:48.249Z,20.60
2023-01-23T10:10:53.381Z,21.38
2023-01-23T10:13:28.180Z,19.58
2023-01-23T10:16:12.442Z,19.58
2023-01-23T10:19:07.867Z,18.95
2023-01-23T10:21:46.194Z,19.65
2023-01-23T10:24:19.081Z,20.88
2023-01-23T10:26:48.754Z,20.88
2023-01-23T10:29:34.682Z,20.73
2023-01-23T10:32:06.386Z,20.90
2023-01-23T10:34:48.807Z,20.58
2023-01-23T10:37:21.766Z,19.40
2023-01-23T10:39:59.043Z,19.45
2023-01-23T10:42:27.410Z,18.77
2023-01-23T10:44:54.248Z,19.10
2023-01-23T10:47:32.042Z,18.77
2023-01-23T10:49:59.536Z,19.35
2023-01-23T10:52:37.509Z,17.83
2023-01-23T10:55:30.816Z,18.42
2023-01-23T10:58:03.066Z,18.85
2023-01-23T11:00:39.668Z,19.52
2023-01-23T11:03:21.756Z,18.40
2023-01-23T11:05:53.617Z,19.15
2023-01-23T11:08:38.202Z,19.55
2023-01-23T11:11:16.767Z,19.48
2023-01-23T11:13:45.525Z,20.25
2023-01-23T11:16:18.185Z,20.52
2023-01-23T11:19:07.129Z,19.38
2023-01-23T11:21:54.231Z,18.48
2023-01-23T11:24:30.597Z,18.30
2023-01-23T11:27:28.128Z,17.45
2023-01-23T11:30:13.834Z,17.70
2023-01-23T11:32:55.122Z,16.67
2023-01-23T11:35:34.569Z,17.08
2023-01-23T11:38:04.253Z,17.23
2023-01-23T11:40:31.401Z,16.85
2023-01-23T11:42:58.233Z,16.40
2023-01-23T11:45:43.964Z,16.90
2023-01-23T11:48:27.429Z,16.85
2023-01-23T11:51:25.419Z,17.73
2023-01-23T11:54:17.109Z,17.13
2023-01-23T11:56:50.448Z,17.05
2023-01-23T11:59:36.218Z,16.65
2023-01-23T12:02:28.234Z,16.02
2023-01-23T12:07:24.920Z,16.55
2023-01-23T12:10:15.492Z,16.73
2023-01-23T12:12:49.054Z,16.10
2023-01-23T12:15:29.935Z,16.08
2023-01-23T12:18:17.254Z,16.00
2023-01-23T12:21:18.103Z,16.88
2023-01-23T12:23:56.525Z,16.48
2023-01-23T12:26:26.480Z,15.93
2023-01-23T12:29:25.427Z,15.90
2023-01-23T12:32:14.551Z,15.85
2023-01-23T12:34:58.904Z,16.65
2023-01-23T12:37:57.997Z,16.00
2023-01-23T12:40:31.013Z,15.23
2023-01-23T12:43:16.258Z,13.90
2023-01-23T12:45:56.239Z,13.30
2023-01-23T12:48:29.626Z,13.00
2023-01-23T12:51:10.544Z,13.75
2023-01-23T12:53:39.860Z,13.27
2023-01-23T12:56:23.614Z,13.75
2023-01-23T12:59:10.650Z,13.50
2023-01-23T13:01:37.661Z,14.30
2023-01-23T13:04:21.857Z,13.73
2023-01-23T13:07:07.438Z,13.57
2023-01-23T13:10:06.322Z,13.93
2023-01-23T13:12:34.005Z,13.02
2023-01-23T13:15:38.745Z,13.52
2023-01-23T13:18:17.266Z,13.68
2023-01-23T13:21:18.655Z,13.32
2023-01-23T13:23:45.504Z,13.27
2023-01-23T13:26:23.241Z,13.88
2023-01-23T13:28:54.869Z,13.77
2023-01-23T13:31:34.275Z,13.40
2023-01-23T13:34:14.961Z,14.38
2023-01-23T13:36:50.266Z,13.25
2023-01-23T13:39:17.021Z,13.98
2023-01-23T13:42:12.836Z,14.13
2023-01-23T13:45:18.210Z,13.27
2023-01-23T14:22:44.497Z,11.07
2023-01-23T14:25:33.814Z,11.98
